Argonia, Kansas
Current Conditions -  °F | °C
As of 11:29 AM on Friday 21 Nov 2014 (Local Time) from KICT Reporting Station
Moderate Fog Moderate Fog  
Wind Chill: 40°   Ceiling: 200
Heat Index: 40°   Visibility: 0.06mi
Dew Point: 39°   Wind: 3mph
Humidity: 97%   Direction: 110°ESE
Pressure: 30.1"   Gusts: NA
Location:  37.27°N, 97.77°W
Report Text: KICT 211729Z 11003KT 1/16SM R01L/1600V2200FT FG VV002 04/04 A3010 RMK AO2 TWR VIS 1/4 T00440039
Loading
Personal Weather Stations






























Interactive Weather Map New forecast layout! Learn more

10-Day Weather Forecast

Advertisements
Track Severe Weather on mobile